EDDPLOWI

Guest
Details From EDDP - Leipzig-halle
To LOWI - Innsbruck Kranebitten
Flight Number -
Tags Generated
Created
Modified
Stats Distance 252 nm / 466 km
Max Altitude 0 ft / 0 m
Waypoints 3
Social Downloads 2
Likes 0
Share VATSIM

Download

Looking for another format? Having issues loading an existing format? Contact us
Advertisement - Login to hide

Notes

Generated

Route

EDDP NORIN LOWI

ID Type Via Altitude Latitude Longitude Leg Dist Tot Dist Heading (true) Name
O EDDP APT - 0 ft / 0 m 51.41160˚ 12.20459˚ - 0 nm - -
NORIN FIX - 0 ft / 0 m 47.38710˚ 11.38843˚ 243 nm 243 nm 188° / 187° -
O LOWI APT - 0 ft / 0 m 47.25883˚ 11.33091˚ 8 nm 251 nm 197° / 197° -

Altitude Profile

Advertisement - Login to hide

Weather


0- 5 10 15 20 25 30 35+ Temperature / ° C

Clouds and Precipitation
Forecast for 2018-05-24 18:00 UTC. Updated 5 hours ago

Ground ~20,000 ft ~40,000 ft Winds

EDDP

Details ICAO EDDP (LEJ)
Name Leipzig-Halle
Region Germany - Civil
Timezone Europe/Berlin (UTC+2.0)
Stats Elevation 464 ft / 141 m (AMSL)
Location 51.422631° 12.236042°
Runways 2
Magnetic Variation 3.454° E

METAR

EDDP 242220Z 04005KT CAVOK 15/13 Q1020 NOSIG

Decode

TAF

TAF EDDP 241700Z 2418/2518 07008KT CAVOK

Decode

Departure Runways

ID Width Length Bearing (true) Bearing (mag) Surface Threshold Offset Overrun Length
08L 148 ft / 45 m 11,776 ft / 3,589 m 85.70° 82.25° Concrete 0 ft / 0 m 0 ft / 0 m
08R 197 ft / 60 m 11,777 ft / 3,590 m 85.68° 82.23° Concrete 0 ft / 0 m 0 ft / 0 m
26L 197 ft / 60 m 11,777 ft / 3,590 m 265.72° 262.27° Concrete 0 ft / 0 m 0 ft / 0 m
26R 148 ft / 45 m 11,776 ft / 3,589 m 265.74° 262.29° Concrete 0 ft / 0 m 0 ft / 0 m

LOWI

Details ICAO LOWI (INN)
Name Innsbruck Kranebitten
Region Austria
Timezone Europe/Vienna (UTC+2.0)
Stats Elevation 1,906 ft / 581 m (AMSL)
Location 47.260226° 11.343967°
Runways 1
Magnetic Variation 3.072° E

METAR

LOWI 242150Z AUTO 24004KT 200V270 9999 FEW120 14/13 Q1020

Decode

TAF

TAF LOWI 241715Z 2418/2518 08005KT 9999 FEW060 SCT120 BKN300 TX25/2514Z TN12/2504Z PROB30 TEMPO 2418/2420 SHRA FEW060TCU BKN080 BECMG 2420/2422 27007KT BECMG 2508/2510 09005KT

Decode

Destination Runways

ID Width Length Bearing (true) Bearing (mag) Surface Threshold Offset Overrun Length
08 148 ft / 45 m 6,545 ft / 1,995 m 81.02° 77.95° Asphalt 338 ft / 103 m 0 ft / 0 m
26 148 ft / 45 m 6,545 ft / 1,995 m 261.04° 257.97° Asphalt 0 ft / 0 m 0 ft / 0 m

Approach Navaids

Runway Type Ident Frequency Range Bearing (true) Bearing (mag) Slope Elevation
26 Localiser OEV 111.10 MHz 27 nm / 50 km 256.00° 252.93° - 1,906 ft / 581 m (AMSL)
26 Localiser OEJ 109.70 MHz 30 nm / 56 km 69.00° 65.93° - 1,906 ft / 581 m (AMSL)
26 Glidescope OEV 111.10 MHz 18 nm / 33 km 256.00° 252.93° 3.80° 1,911 ft / 582 m (AMSL)
26 DME OEJ 109.70 MHz 30 nm / 56 km - - - 1,906 ft / 581 m (AMSL)
26 DME OEV 111.10 MHz 27 nm / 50 km - - - 1,911 ft / 582 m (AMSL)

Popular Alternatives